createdAt,value
2018-05-31T00:00:45.266Z,21.30
2018-05-31T00:03:13.483Z,21.40
2018-05-31T00:05:40.920Z,21.40
2018-05-31T00:08:09.108Z,21.30
2018-05-31T00:10:37.304Z,21.20
2018-05-31T00:13:05.485Z,21.20
2018-05-31T00:15:33.696Z,21.20
2018-05-31T00:18:01.156Z,21.10
2018-05-31T00:20:28.633Z,21.20
2018-05-31T00:22:57.193Z,21.00
2018-05-31T00:25:25.417Z,21.00
2018-05-31T00:27:52.834Z,20.90
2018-05-31T00:30:20.252Z,20.90
2018-05-31T00:32:47.673Z,20.90
2018-05-31T00:35:15.197Z,21.00
2018-05-31T00:37:42.616Z,21.00
2018-05-31T00:40:10.035Z,20.80
2018-05-31T00:42:37.493Z,20.70
2018-05-31T00:45:04.963Z,20.70
2018-05-31T00:47:32.384Z,20.80
2018-05-31T00:49:59.800Z,20.80
2018-05-31T00:52:27.269Z,20.80
2018-05-31T00:54:54.684Z,20.80
2018-05-31T00:57:22.116Z,21.00
2018-05-31T00:59:49.532Z,21.00
2018-05-31T01:02:17.783Z,20.90
2018-05-31T01:04:45.196Z,20.90
2018-05-31T01:07:13.421Z,20.70
2018-05-31T01:09:40.852Z,20.70
2018-05-31T01:12:09.069Z,20.70
2018-05-31T01:14:36.493Z,20.70
2018-05-31T01:17:03.921Z,20.80
2018-05-31T01:19:31.337Z,20.80
2018-05-31T01:21:58.845Z,20.60
2018-05-31T01:24:27.824Z,20.60
2018-05-31T01:26:56.938Z,20.50
2018-05-31T01:29:25.153Z,20.40
2018-05-31T01:31:52.584Z,20.30
2018-05-31T01:34:20.778Z,20.10
2018-05-31T01:36:49.008Z,20.00
2018-05-31T01:39:17.227Z,20.00
2018-05-31T01:41:44.745Z,20.00
2018-05-31T01:44:12.163Z,20.00
2018-05-31T01:46:39.677Z,19.90
2018-05-31T01:49:07.149Z,20.00
2018-05-31T01:51:34.569Z,20.00
2018-05-31T01:54:01.991Z,20.00
2018-05-31T01:56:29.452Z,19.80
2018-05-31T01:58:58.223Z,19.70
2018-05-31T02:01:27.329Z,19.70
2018-05-31T02:03:55.520Z,19.60
2018-05-31T02:06:23.716Z,19.60
2018-05-31T02:08:51.919Z,19.60
2018-05-31T02:11:19.352Z,19.60
2018-05-31T02:13:47.579Z,19.50
2018-05-31T02:16:15.002Z,19.50
2018-05-31T02:18:42.516Z,19.60
2018-05-31T02:21:09.936Z,19.50
2018-05-31T02:23:38.865Z,19.70
2018-05-31T02:26:07.049Z,19.80
2018-05-31T02:28:35.237Z,19.70
2018-05-31T02:31:03.438Z,19.70
2018-05-31T02:33:30.909Z,19.70
2018-05-31T02:35:58.368Z,19.60
2018-05-31T02:38:25.793Z,19.60
2018-05-31T02:40:53.332Z,19.60
2018-05-31T02:43:21.516Z,19.60
2018-05-31T02:45:48.935Z,19.60
2018-05-31T02:48:16.355Z,19.50
2018-05-31T02:50:43.764Z,19.50
2018-05-31T02:53:11.181Z,19.50
2018-05-31T02:55:38.597Z,19.50
2018-05-31T02:58:06.117Z,19.40
2018-05-31T03:00:33.537Z,19.40
2018-05-31T03:03:00.962Z,19.40
2018-05-31T03:05:28.388Z,19.30
2018-05-31T03:07:56.572Z,19.40
2018-05-31T03:10:24.795Z,19.30
2018-05-31T03:12:52.222Z,19.30
2018-05-31T03:15:19.648Z,19.30
2018-05-31T03:17:47.105Z,19.20
2018-05-31T03:20:14.527Z,19.20
2018-05-31T03:22:41.963Z,19.20
2018-05-31T03:25:09.408Z,19.20
2018-05-31T03:27:36.871Z,19.20
2018-05-31T03:30:04.293Z,19.30
2018-05-31T03:32:31.813Z,19.30
2018-05-31T03:34:59.232Z,19.30
2018-05-31T03:37:28.205Z,19.20
2018-05-31T03:39:55.636Z,19.20
2018-05-31T03:42:23.068Z,19.10
2018-05-31T03:44:50.493Z,19.20
2018-05-31T03:47:17.920Z,19.30
2018-05-31T03:49:46.110Z,19.10
2018-05-31T03:52:14.325Z,19.00
2018-05-31T03:54:41.804Z,19.00
2018-05-31T03:57:09.224Z,19.00
2018-05-31T03:59:36.641Z,19.00
2018-05-31T04:02:04.064Z,19.00
2018-05-31T04:04:32.250Z,19.20
2018-05-31T04:06:59.761Z,19.20
2018-05-31T04:09:27.225Z,19.20
2018-05-31T04:11:54.644Z,19.30
2018-05-31T04:14:22.169Z,19.40
2018-05-31T04:16:49.599Z,19.60
2018-05-31T04:19:17.833Z,19.40
2018-05-31T04:21:45.287Z,19.40
2018-05-31T04:24:13.473Z,19.20
2018-05-31T04:26:40.901Z,19.20
2018-05-31T04:29:08.324Z,19.20
2018-05-31T04:31:35.773Z,19.20
2018-05-31T04:34:03.261Z,19.30
2018-05-31T04:36:30.685Z,19.40
2018-05-31T04:38:59.800Z,19.40
2018-05-31T04:41:27.983Z,19.40
2018-05-31T04:43:56.174Z,19.40
2018-05-31T04:46:24.355Z,19.50
2018-05-31T04:48:52.571Z,19.50
2018-05-31T04:51:20.752Z,19.50
2018-05-31T04:53:48.205Z,19.50
2018-05-31T04:56:15.636Z,19.60
2018-05-31T04:58:43.161Z,19.60
2018-05-31T05:01:10.584Z,19.60
2018-05-31T05:03:38.092Z,19.60
2018-05-31T05:06:05.516Z,19.70
2018-05-31T05:08:32.951Z,19.70
2018-05-31T05:11:00.369Z,19.80
2018-05-31T05:13:27.780Z,19.80
2018-05-31T05:15:55.205Z,19.90
2018-05-31T05:18:23.418Z,20.00
2018-05-31T05:20:51.630Z,20.00
2018-05-31T05:23:19.106Z,20.00
2018-05-31T05:25:46.504Z,20.00
2018-05-31T05:28:13.926Z,20.00
2018-05-31T05:30:41.383Z,20.20
2018-05-31T05:33:08.858Z,20.30
2018-05-31T05:35:36.218Z,20.40
2018-05-31T05:38:03.688Z,20.40
2018-05-31T05:40:31.112Z,20.50
2018-05-31T05:42:58.546Z,20.60
2018-05-31T05:45:25.962Z,20.60
2018-05-31T05:47:54.188Z,20.60
2018-05-31T05:50:21.648Z,20.60
2018-05-31T05:52:49.848Z,20.80
2018-05-31T05:55:17.273Z,20.80
2018-05-31T05:57:45.488Z,20.90
2018-05-31T06:00:12.903Z,20.90
2018-05-31T06:02:40.319Z,21.00
2018-05-31T06:05:07.745Z,21.10
2018-05-31T06:07:35.168Z,21.20
2018-05-31T06:10:02.603Z,21.20
2018-05-31T06:12:31.110Z,21.40
2018-05-31T06:14:58.541Z,21.40
2018-05-31T06:17:25.974Z,21.50
2018-05-31T06:19:53.457Z,21.70
2018-05-31T06:22:21.599Z,22.00
2018-05-31T06:24:49.045Z,22.00
2018-05-31T06:27:17.253Z,22.20
2018-05-31T06:29:44.680Z,22.20
2018-05-31T06:32:12.098Z,22.30
2018-05-31T06:34:39.516Z,22.40
2018-05-31T06:37:06.991Z,22.50
2018-05-31T06:39:34.449Z,22.50
2018-05-31T06:42:02.570Z,22.70
2018-05-31T06:44:31.468Z,22.70
2018-05-31T06:47:01.323Z,22.90
2018-05-31T06:49:28.737Z,22.90
2018-05-31T06:51:56.260Z,23.00
2018-05-31T06:54:23.690Z,23.20
2018-05-31T06:56:51.203Z,23.20
2018-05-31T06:59:19.404Z,23.40
2018-05-31T07:01:46.836Z,23.40
2018-05-31T07:04:15.016Z,23.50
2018-05-31T07:06:43.238Z,23.60
2018-05-31T07:09:10.669Z,23.50
2018-05-31T07:11:38.885Z,23.70
2018-05-31T07:14:06.304Z,23.70
2018-05-31T07:16:33.728Z,23.80
2018-05-31T07:19:01.163Z,23.80
2018-05-31T07:21:29.340Z,24.00
2018-05-31T07:23:57.656Z,24.00
2018-05-31T07:26:25.129Z,24.00
2018-05-31T07:28:52.560Z,24.10
2018-05-31T07:31:20.015Z,24.10
2018-05-31T07:33:47.657Z,24.10
2018-05-31T07:36:15.218Z,24.20
2018-05-31T07:38:42.686Z,24.20
2018-05-31T07:41:10.152Z,24.30
2018-05-31T07:43:37.619Z,24.30
2018-05-31T07:46:05.789Z,24.40
2018-05-31T07:48:33.978Z,24.50
2018-05-31T07:51:02.277Z,24.60
2018-05-31T07:53:29.749Z,24.60
2018-05-31T07:55:57.213Z,24.70
2018-05-31T07:58:24.709Z,24.80
2018-05-31T08:00:52.062Z,24.90
2018-05-31T08:03:19.485Z,25.00
2018-05-31T08:05:47.025Z,25.10
2018-05-31T08:08:14.416Z,25.20
2018-05-31T08:10:41.834Z,25.30
2018-05-31T08:13:09.265Z,25.30
2018-05-31T08:15:37.461Z,25.40
2018-05-31T08:18:05.636Z,25.50
2018-05-31T08:20:33.857Z,25.50
2018-05-31T08:23:02.625Z,25.60
2018-05-31T08:25:31.736Z,25.60
2018-05-31T08:27:59.928Z,25.60
2018-05-31T08:30:28.144Z,25.70
2018-05-31T08:32:55.561Z,25.70
2018-05-31T08:35:22.991Z,25.70
2018-05-31T08:37:50.425Z,25.80
2018-05-31T08:40:17.850Z,25.90
2018-05-31T08:42:45.284Z,26.00
2018-05-31T08:45:12.711Z,26.10
2018-05-31T08:47:40.134Z,26.10
2018-05-31T08:50:07.558Z,26.10
2018-05-31T08:52:35.750Z,26.10
2018-05-31T08:55:03.954Z,26.10
2018-05-31T08:57:32.312Z,26.10
2018-05-31T08:59:59.741Z,26.20
2018-05-31T09:02:27.190Z,26.20
2018-05-31T09:04:54.689Z,26.30
2018-05-31T09:07:22.116Z,26.30
2018-05-31T09:09:49.549Z,26.30
2018-05-31T09:12:17.055Z,26.30
2018-05-31T09:14:44.633Z,26.50
2018-05-31T09:17:12.818Z,26.60
2018-05-31T09:19:40.289Z,26.60
2018-05-31T09:22:07.700Z,26.70
2018-05-31T09:24:36.660Z,26.80
2018-05-31T09:27:04.088Z,26.80
2018-05-31T09:29:31.607Z,26.90
2018-05-31T09:31:59.072Z,26.90
2018-05-31T09:34:26.498Z,26.90
2018-05-31T09:36:53.917Z,26.90
2018-05-31T09:39:21.393Z,27.00
2018-05-31T09:41:48.851Z,27.10
2018-05-31T09:44:16.304Z,27.10
2018-05-31T09:46:43.728Z,27.10
2018-05-31T09:49:11.142Z,27.20
2018-05-31T09:51:38.605Z,27.30
2018-05-31T09:54:06.188Z,27.40
2018-05-31T09:56:33.658Z,27.60
2018-05-31T09:59:01.069Z,27.60
2018-05-31T10:01:29.996Z,27.60
2018-05-31T10:03:57.442Z,27.60
2018-05-31T10:06:24.968Z,27.60
2018-05-31T10:08:52.381Z,27.60
2018-05-31T10:11:19.934Z,27.60
2018-05-31T10:13:47.384Z,27.60
2018-05-31T10:16:14.836Z,27.70
2018-05-31T10:18:43.004Z,27.70
2018-05-31T10:21:11.197Z,27.70
2018-05-31T10:23:38.790Z,27.70
2018-05-31T10:26:06.189Z,27.80
2018-05-31T10:28:33.611Z,27.90
2018-05-31T10:31:01.032Z,27.90
2018-05-31T10:33:28.468Z,27.90
2018-05-31T10:35:55.895Z,28.00
2018-05-31T10:38:24.091Z,28.10
2018-05-31T10:40:52.289Z,28.20
2018-05-31T10:43:19.699Z,28.10
2018-05-31T10:45:47.125Z,28.20
2018-05-31T10:48:14.596Z,28.20
2018-05-31T10:50:42.076Z,28.20
2018-05-31T10:53:09.499Z,28.20
2018-05-31T10:55:36.942Z,28.40
2018-05-31T10:58:04.349Z,28.40
2018-05-31T11:00:32.559Z,28.60
2018-05-31T11:03:00.737Z,28.60
2018-05-31T11:05:28.149Z,28.60
2018-05-31T11:07:55.578Z,28.60
2018-05-31T11:10:23.010Z,28.60
2018-05-31T11:12:50.436Z,28.60
2018-05-31T11:15:17.876Z,28.60
2018-05-31T11:17:45.313Z,28.70
2018-05-31T11:20:12.828Z,28.80
2018-05-31T11:22:40.263Z,28.80
2018-05-31T11:25:07.752Z,29.00
2018-05-31T11:27:35.333Z,29.10
2018-05-31T11:30:04.441Z,29.20
2018-05-31T11:32:31.872Z,29.20
2018-05-31T11:34:59.372Z,29.20
2018-05-31T11:37:26.788Z,29.40
2018-05-31T11:39:54.212Z,29.50
2018-05-31T11:42:21.787Z,29.40
2018-05-31T11:44:49.958Z,29.50
2018-05-31T11:47:17.552Z,29.50
2018-05-31T11:49:44.978Z,29.60
2018-05-31T11:52:13.160Z,30.00
2018-05-31T11:54:41.351Z,29.90
2018-05-31T11:57:09.542Z,30.20
2018-05-31T11:59:37.729Z,30.30
2018-05-31T12:02:05.940Z,30.40
2018-05-31T12:04:35.033Z,30.30
2018-05-31T12:07:02.465Z,30.20
2018-05-31T12:09:29.873Z,30.30
2018-05-31T12:11:57.293Z,30.40
2018-05-31T12:14:24.717Z,30.50
2018-05-31T12:16:52.222Z,30.40
2018-05-31T12:19:19.676Z,30.50
2018-05-31T12:21:47.129Z,31.10
2018-05-31T12:24:14.554Z,31.80
2018-05-31T12:26:41.971Z,32.30
2018-05-31T12:29:09.420Z,32.30
2018-05-31T12:31:36.900Z,32.30
2018-05-31T12:34:05.976Z,32.50
2018-05-31T12:36:35.086Z,32.40
2018-05-31T12:39:03.269Z,32.60
2018-05-31T12:41:31.476Z,33.00
2018-05-31T12:43:58.962Z,32.90
2018-05-31T12:46:26.434Z,33.70
2018-05-31T12:48:54.609Z,34.90
2018-05-31T12:51:22.087Z,34.90
2018-05-31T12:53:49.563Z,35.80
2018-05-31T12:56:17.028Z,34.60
2018-05-31T12:58:44.498Z,34.20
2018-05-31T13:01:12.119Z,33.90
2018-05-31T13:03:39.526Z,33.90
2018-05-31T13:06:07.156Z,34.30
2018-05-31T13:08:34.529Z,33.30
2018-05-31T13:11:01.949Z,33.30
2018-05-31T13:13:29.409Z,34.30
2018-05-31T13:15:56.872Z,35.20
2018-05-31T13:18:24.347Z,36.70
2018-05-31T13:20:51.805Z,36.40
2018-05-31T13:23:19.229Z,35.00
2018-05-31T13:25:46.643Z,33.40
2018-05-31T13:28:14.056Z,33.70
2018-05-31T13:30:41.582Z,35.00
2018-05-31T13:33:09.002Z,35.50
2018-05-31T13:35:36.412Z,35.90
2018-05-31T13:38:03.828Z,36.20
2018-05-31T13:40:31.364Z,36.90
2018-05-31T13:42:58.832Z,37.40
2018-05-31T13:45:26.240Z,36.20
2018-05-31T13:47:53.752Z,34.80
2018-05-31T13:50:21.236Z,34.00
2018-05-31T13:52:49.420Z,33.50
2018-05-31T13:55:17.588Z,33.00
2018-05-31T13:57:45.772Z,32.10
2018-05-31T14:00:13.973Z,31.80
2018-05-31T14:02:41.381Z,31.80
2018-05-31T14:05:08.916Z,32.50
2018-05-31T14:07:37.489Z,33.70
2018-05-31T14:10:06.634Z,33.90
2018-05-31T14:12:34.041Z,33.90
2018-05-31T14:15:02.244Z,34.20
2018-05-31T14:17:30.433Z,33.40
2018-05-31T14:19:59.021Z,33.50
2018-05-31T14:22:26.536Z,33.50
2018-05-31T14:24:53.940Z,33.80
2018-05-31T14:27:21.468Z,35.30
2018-05-31T14:29:48.890Z,35.20
2018-05-31T14:32:16.328Z,36.00
2018-05-31T14:34:43.741Z,35.60
2018-05-31T14:37:11.921Z,34.30
2018-05-31T14:39:40.117Z,34.20
2018-05-31T14:42:08.293Z,35.00
2018-05-31T14:44:37.404Z,34.90
2018-05-31T14:47:05.600Z,34.80
2018-05-31T14:49:33.780Z,34.50
2018-05-31T14:52:01.989Z,34.70
2018-05-31T14:54:29.459Z,34.60
2018-05-31T14:56:57.608Z,34.00
2018-05-31T14:59:25.862Z,33.70
2018-05-31T15:01:53.289Z,33.70
2018-05-31T15:04:20.707Z,34.30
2018-05-31T15:06:48.149Z,34.60
2018-05-31T15:09:15.564Z,34.90
2018-05-31T15:11:43.764Z,35.10
2018-05-31T15:14:11.949Z,35.10
2018-05-31T15:16:40.142Z,34.80
2018-05-31T15:19:07.741Z,34.80
2018-05-31T15:21:35.203Z,35.40
2018-05-31T15:24:02.619Z,35.90
2018-05-31T15:26:30.292Z,35.00
2018-05-31T15:28:57.712Z,34.00
2018-05-31T15:31:25.195Z,33.60
2018-05-31T15:33:52.655Z,33.40
2018-05-31T15:36:20.080Z,33.70
2018-05-31T15:38:48.307Z,35.40
2018-05-31T15:41:15.772Z,35.40
2018-05-31T15:43:43.180Z,36.00
2018-05-31T15:46:10.610Z,36.00
2018-05-31T15:48:38.972Z,35.00
2018-05-31T15:51:08.079Z,34.30
2018-05-31T15:53:36.270Z,34.30
2018-05-31T15:56:04.472Z,33.80
2018-05-31T15:58:31.880Z,33.80
2018-05-31T16:00:59.308Z,34.00
2018-05-31T16:03:26.724Z,34.50
2018-05-31T16:05:54.256Z,34.30
2018-05-31T16:08:22.448Z,33.30
2018-05-31T16:10:49.864Z,33.30
2018-05-31T16:13:18.800Z,32.60
2018-05-31T16:15:46.281Z,32.50
2018-05-31T16:18:14.465Z,31.80
2018-05-31T16:20:41.935Z,31.80
2018-05-31T16:23:10.152Z,31.80
2018-05-31T16:25:38.494Z,31.80
2018-05-31T16:28:06.699Z,32.60
2018-05-31T16:30:34.866Z,32.80
2018-05-31T16:33:03.071Z,32.50
2018-05-31T16:35:31.244Z,31.70
2018-05-31T16:37:58.720Z,31.60
2018-05-31T16:40:26.194Z,31.20
2018-05-31T16:42:54.392Z,30.60
2018-05-31T16:45:21.804Z,30.60
2018-05-31T16:47:49.347Z,30.60
2018-05-31T16:50:16.781Z,30.80
2018-05-31T16:52:44.211Z,30.90
2018-05-31T16:55:11.622Z,30.80
2018-05-31T16:57:40.012Z,30.60
2018-05-31T17:00:07.437Z,30.50
2018-05-31T17:02:35.055Z,30.50
2018-05-31T17:05:03.240Z,30.50
2018-05-31T17:07:30.656Z,30.50
2018-05-31T17:09:58.084Z,30.60
2018-05-31T17:12:25.536Z,30.70
2018-05-31T17:14:53.037Z,30.60
2018-05-31T17:17:20.430Z,30.20
2018-05-31T17:19:47.859Z,30.10
2018-05-31T17:22:15.264Z,30.00
2018-05-31T17:24:42.680Z,29.80
2018-05-31T17:27:10.096Z,29.90
2018-05-31T17:29:37.520Z,29.70
2018-05-31T17:32:04.928Z,29.70
2018-05-31T17:34:32.360Z,29.60
2018-05-31T17:36:59.816Z,29.70
2018-05-31T17:39:27.226Z,29.60
2018-05-31T17:41:54.652Z,29.50
2018-05-31T17:44:22.064Z,29.70
2018-05-31T17:46:49.498Z,30.10
2018-05-31T17:49:16.963Z,30.30
2018-05-31T17:51:44.537Z,30.10
2018-05-31T17:54:12.684Z,29.50
2018-05-31T17:56:40.908Z,29.40
2018-05-31T17:59:08.324Z,29.40
2018-05-31T18:01:35.750Z,29.30
2018-05-31T18:04:03.204Z,29.20
2018-05-31T18:06:30.629Z,29.30
2018-05-31T18:08:58.049Z,29.20
2018-05-31T18:11:25.480Z,29.10
2018-05-31T18:13:52.887Z,28.90
2018-05-31T18:16:20.365Z,28.80
2018-05-31T18:18:47.776Z,28.80
2018-05-31T18:21:15.194Z,28.90
2018-05-31T18:23:42.652Z,28.90
2018-05-31T18:26:11.346Z,28.70
2018-05-31T18:28:38.778Z,28.70
2018-05-31T18:31:06.301Z,28.60
2018-05-31T18:33:33.721Z,28.30
2018-05-31T18:36:01.139Z,28.10
2018-05-31T18:38:28.603Z,28.00
2018-05-31T18:40:56.016Z,27.90
2018-05-31T18:43:23.432Z,27.80
2018-05-31T18:45:50.912Z,27.80
2018-05-31T18:48:18.341Z,27.80
2018-05-31T18:50:46.566Z,28.00
2018-05-31T18:53:14.037Z,27.90
2018-05-31T18:55:41.445Z,28.10
2018-05-31T18:58:08.968Z,28.00
2018-05-31T19:00:36.405Z,28.00
2018-05-31T19:03:03.904Z,27.90
2018-05-31T19:05:31.317Z,27.80
2018-05-31T19:07:59.512Z,27.70
2018-05-31T19:10:27.025Z,27.60
2018-05-31T19:13:00.224Z,27.60
2018-05-31T19:15:27.690Z,27.60
2018-05-31T19:17:55.065Z,27.60
2018-05-31T19:20:22.489Z,27.60
2018-05-31T19:22:49.908Z,27.60
2018-05-31T19:25:20.734Z,27.50
2018-05-31T19:27:48.173Z,27.60
2018-05-31T19:30:21.188Z,27.60
2018-05-31T19:32:49.418Z,27.50
2018-05-31T19:35:22.533Z,27.40
2018-05-31T19:37:49.989Z,27.50
2018-05-31T19:40:17.414Z,27.50
2018-05-31T19:42:50.533Z,27.40
2018-05-31T19:45:18.086Z,27.50
2018-05-31T19:47:45.603Z,27.60
2018-05-31T19:50:13.022Z,27.60
2018-05-31T19:52:46.221Z,27.50
2018-05-31T19:55:13.636Z,27.50
2018-05-31T19:57:47.811Z,27.50
2018-05-31T20:00:20.929Z,27.60
2018-05-31T20:02:54.941Z,27.60
2018-05-31T20:05:22.452Z,27.60
2018-05-31T20:07:49.919Z,27.40
2018-05-31T20:10:18.084Z,26.70
2018-05-31T20:12:46.298Z,26.50
2018-05-31T20:15:13.699Z,26.50
2018-05-31T20:17:42.812Z,26.20
2018-05-31T20:20:10.988Z,26.10
2018-05-31T20:22:38.528Z,26.10
2018-05-31T20:25:05.946Z,26.00
2018-05-31T20:27:33.384Z,25.80
2018-05-31T20:30:01.846Z,25.60
2018-05-31T20:32:29.270Z,25.50
2018-05-31T20:34:56.676Z,25.40
2018-05-31T20:37:24.157Z,25.40
2018-05-31T20:39:51.633Z,25.30
2018-05-31T20:42:19.073Z,25.30
2018-05-31T20:44:47.265Z,25.30
2018-05-31T20:47:14.680Z,25.20
2018-05-31T20:49:43.628Z,25.20
2018-05-31T20:52:12.756Z,25.20
2018-05-31T20:54:40.941Z,25.20
2018-05-31T20:57:08.356Z,25.20
2018-05-31T20:59:35.778Z,25.20
2018-05-31T21:02:03.245Z,25.20
2018-05-31T21:04:30.721Z,25.20
2018-05-31T21:06:58.884Z,25.20
2018-05-31T21:09:27.064Z,25.10
2018-05-31T21:11:55.325Z,25.10
2018-05-31T21:14:23.447Z,25.00
2018-05-31T21:16:51.632Z,25.00
2018-05-31T21:19:19.062Z,25.00
2018-05-31T21:21:46.473Z,25.00
2018-05-31T21:24:13.946Z,25.00
2018-05-31T21:26:41.428Z,25.00
2018-05-31T21:29:08.816Z,24.90
2018-05-31T21:31:36.237Z,25.00
2018-05-31T21:34:04.432Z,25.00
2018-05-31T21:36:31.844Z,25.00
2018-05-31T21:38:59.272Z,25.00
2018-05-31T21:41:26.693Z,25.00
2018-05-31T21:43:54.104Z,25.00
2018-05-31T21:46:21.522Z,25.00
2018-05-31T21:48:48.949Z,25.00
2018-05-31T21:51:16.376Z,25.00
2018-05-31T21:53:44.790Z,24.90
2018-05-31T21:56:13.890Z,24.80
2018-05-31T21:58:42.072Z,24.70
2018-05-31T22:01:10.252Z,24.60
2018-05-31T22:03:38.437Z,24.60
2018-05-31T22:06:06.691Z,24.60
2018-05-31T22:08:34.084Z,24.60
2018-05-31T22:11:01.516Z,24.50
2018-05-31T22:13:28.964Z,24.50
2018-05-31T22:15:56.430Z,24.50
2018-05-31T22:18:23.852Z,24.40
2018-05-31T22:20:51.272Z,24.40
2018-05-31T22:23:18.988Z,24.30
2018-05-31T22:25:46.618Z,24.20
2018-05-31T22:28:15.384Z,23.80
2018-05-31T22:30:44.526Z,23.90
2018-05-31T22:33:11.996Z,23.80
2018-05-31T22:35:39.404Z,23.80
2018-05-31T22:38:06.832Z,23.90
2018-05-31T22:40:34.252Z,23.90
2018-05-31T22:43:01.764Z,24.00
2018-05-31T22:45:29.184Z,24.10
2018-05-31T22:47:56.601Z,24.10
2018-05-31T22:50:24.019Z,23.90
2018-05-31T22:52:51.455Z,23.80
2018-05-31T22:55:18.912Z,23.80
2018-05-31T22:57:46.328Z,23.80
2018-05-31T23:00:20.704Z,23.90
2018-05-31T23:02:48.138Z,24.00
2018-05-31T23:05:15.644Z,24.00
2018-05-31T23:07:43.113Z,24.10
2018-05-31T23:10:10.575Z,24.10
2018-05-31T23:12:38.058Z,24.20
2018-05-31T23:15:05.468Z,24.20
2018-05-31T23:17:32.881Z,24.20
2018-05-31T23:20:00.293Z,24.20
2018-05-31T23:22:27.707Z,24.20
2018-05-31T23:24:55.124Z,24.10
2018-05-31T23:27:22.552Z,24.10
2018-05-31T23:29:50.066Z,24.10
2018-05-31T23:32:17.468Z,24.10
2018-05-31T23:34:46.576Z,24.10
2018-05-31T23:37:14.793Z,24.10
2018-05-31T23:39:42.206Z,24.00
2018-05-31T23:42:09.615Z,23.90
2018-05-31T23:44:37.039Z,23.90
2018-05-31T23:47:04.459Z,23.90
2018-05-31T23:49:31.907Z,23.80
2018-05-31T23:51:59.284Z,23.70
2018-05-31T23:54:26.697Z,23.70
2018-05-31T23:56:54.244Z,23.60
2018-05-31T23:59:21.641Z,23.60
